createdAt,value
2018-04-02T00:02:17.972Z,99.90
2018-04-02T00:04:45.589Z,99.90
2018-04-02T00:07:13.406Z,99.90
2018-04-02T00:09:41.173Z,99.90
2018-04-02T00:12:08.790Z,99.90
2018-04-02T00:14:36.403Z,99.90
2018-04-02T00:17:04.257Z,99.90
2018-04-02T00:19:32.632Z,99.90
2018-04-02T00:22:01.020Z,99.90
2018-04-02T00:24:30.010Z,99.90
2018-04-02T00:26:57.976Z,99.90
2018-04-02T00:29:25.636Z,99.90
2018-04-02T00:31:55.112Z,99.90
2018-04-02T00:34:22.730Z,99.90
2018-04-02T00:36:50.353Z,99.90
2018-04-02T00:39:18.785Z,99.90
2018-04-02T00:41:46.461Z,99.90
2018-04-02T00:44:14.144Z,99.90
2018-04-02T00:46:41.810Z,99.90
2018-04-02T00:49:09.434Z,99.90
2018-04-02T00:51:37.049Z,99.90
2018-04-02T00:54:04.702Z,99.90
2018-04-02T00:56:32.313Z,99.90
2018-04-02T00:58:59.977Z,99.90
2018-04-02T01:01:27.607Z,99.90
2018-04-02T01:03:55.264Z,99.90
2018-04-02T01:06:22.885Z,99.90
2018-04-02T01:08:50.540Z,99.90
2018-04-02T01:11:18.160Z,99.90
2018-04-02T01:13:46.010Z,99.90
2018-04-02T01:16:13.633Z,99.90
2018-04-02T01:18:41.288Z,99.90
2018-04-02T01:21:09.162Z,99.90
2018-04-02T01:23:37.545Z,99.90
2018-04-02T01:26:05.973Z,99.90
2018-04-02T01:28:33.701Z,99.90
2018-04-02T01:31:01.365Z,99.90
2018-04-02T01:33:29.780Z,99.90
2018-04-02T01:35:57.560Z,99.90
2018-04-02T01:38:25.209Z,99.90
2018-04-02T01:40:52.865Z,99.90
2018-04-02T01:43:20.517Z,99.90
2018-04-02T01:45:48.221Z,99.90
2018-04-02T01:48:16.673Z,99.90
2018-04-02T01:50:44.923Z,99.90
2018-04-02T01:53:12.541Z,99.90
2018-04-02T01:55:40.961Z,99.90
2018-04-02T01:58:08.665Z,99.90
2018-04-02T02:00:36.315Z,99.90
2018-04-02T02:03:03.984Z,99.90
2018-04-02T02:05:31.634Z,99.90
2018-04-02T02:07:59.306Z,99.90
2018-04-02T02:10:27.165Z,99.90
2018-04-02T02:12:54.926Z,99.90
2018-04-02T02:15:22.548Z,99.90
2018-04-02T02:17:50.161Z,99.90
2018-04-02T02:20:17.824Z,99.90
2018-04-02T02:22:45.613Z,99.90
2018-04-02T02:25:14.028Z,99.90
2018-04-02T02:27:41.644Z,99.90
2018-04-02T02:30:09.313Z,99.90
2018-04-02T02:32:36.933Z,99.90
2018-04-02T02:35:04.648Z,99.90
2018-04-02T02:37:32.266Z,99.90
2018-04-02T02:39:59.935Z,99.90
2018-04-02T02:42:27.545Z,99.90
2018-04-02T02:44:55.160Z,99.90
2018-04-02T02:47:23.620Z,99.90
2018-04-02T02:49:51.288Z,99.90
2018-04-02T02:52:18.961Z,99.90
2018-04-02T02:54:46.603Z,99.90
2018-04-02T02:57:14.297Z,99.90
2018-04-02T02:59:41.922Z,99.90
2018-04-02T03:02:09.598Z,99.90
2018-04-02T03:04:38.166Z,99.90
2018-04-02T03:07:05.927Z,99.90
2018-04-02T03:09:33.590Z,99.90
2018-04-02T03:12:01.212Z,99.90
2018-04-02T03:14:28.866Z,99.90
2018-04-02T03:16:56.521Z,99.90
2018-04-02T03:19:24.184Z,99.90
2018-04-02T03:21:51.805Z,99.90
2018-04-02T03:24:19.653Z,99.90
2018-04-02T03:26:47.269Z,99.90
2018-04-02T03:29:15.512Z,99.90
2018-04-02T03:31:43.897Z,99.90
2018-04-02T03:34:12.316Z,99.90
2018-04-02T03:36:40.006Z,99.90
2018-04-02T03:39:07.675Z,99.90
2018-04-02T03:41:35.324Z,99.90
2018-04-02T03:44:02.990Z,99.90
2018-04-02T03:46:30.624Z,99.90
2018-04-02T03:48:58.286Z,99.90
2018-04-02T03:51:25.938Z,99.90
2018-04-02T03:53:53.594Z,99.90
2018-04-02T03:56:21.213Z,99.90
2018-04-02T03:58:49.656Z,99.90
2018-04-02T04:01:17.319Z,99.90
2018-04-02T04:03:46.812Z,99.90
2018-04-02T04:06:14.448Z,99.90
2018-04-02T04:08:42.112Z,99.90
2018-04-02T04:11:09.740Z,99.90
2018-04-02T04:13:37.357Z,99.90
2018-04-02T04:16:05.022Z,99.90
2018-04-02T04:18:32.702Z,99.90
2018-04-02T04:21:00.346Z,99.90
2018-04-02T04:23:28.020Z,99.90
2018-04-02T04:25:55.679Z,99.90
2018-04-02T04:28:23.324Z,99.90
2018-04-02T04:30:50.956Z,99.90
2018-04-02T04:33:18.618Z,99.90
2018-04-02T04:35:46.241Z,99.90
2018-04-02T04:38:14.686Z,99.90
2018-04-02T04:40:42.345Z,99.90
2018-04-02T04:43:10.020Z,99.90
2018-04-02T04:45:37.636Z,99.90
2018-04-02T04:48:05.313Z,99.90
2018-04-02T04:50:32.933Z,99.90
2018-04-02T04:53:01.370Z,99.90
2018-04-02T04:55:29.029Z,99.90
2018-04-02T04:57:56.659Z,99.90
2018-04-02T05:00:24.285Z,99.90
2018-04-02T05:02:52.729Z,99.90
2018-04-02T05:05:20.469Z,99.90
2018-04-02T05:07:48.136Z,99.90
2018-04-02T05:10:16.308Z,99.90
2018-04-02T05:12:43.934Z,99.90
2018-04-02T05:15:11.607Z,99.90
2018-04-02T05:17:39.282Z,99.90
2018-04-02T05:20:07.713Z,99.90
2018-04-02T05:22:35.583Z,99.90
2018-04-02T05:25:03.207Z,99.90
2018-04-02T05:27:31.453Z,99.90
2018-04-02T05:29:59.092Z,99.90
2018-04-02T05:32:26.750Z,99.90
2018-04-02T05:34:54.850Z,99.90
2018-04-02T05:37:22.510Z,99.90
2018-04-02T05:39:50.313Z,99.90
2018-04-02T05:42:17.976Z,99.90
2018-04-02T05:44:45.774Z,99.90
2018-04-02T05:47:14.137Z,99.90
2018-04-02T05:49:41.792Z,99.90
2018-04-02T05:52:09.419Z,99.90
2018-04-02T05:54:37.094Z,99.90
2018-04-02T05:57:04.717Z,99.90
2018-04-02T05:59:32.381Z,99.90
2018-04-02T06:02:00.673Z,99.90
2018-04-02T06:04:28.295Z,99.90
2018-04-02T06:06:56.524Z,99.90
2018-04-02T06:09:24.215Z,99.90
2018-04-02T06:11:51.888Z,99.90
2018-04-02T06:14:19.544Z,99.90
2018-04-02T06:16:47.341Z,99.90
2018-04-02T06:19:15.203Z,99.90
2018-04-02T06:21:44.189Z,99.90
2018-04-02T06:24:13.224Z,99.90
2018-04-02T06:26:41.826Z,99.90
2018-04-02T06:29:21.161Z,99.90
2018-04-02T06:31:48.817Z,99.90
2018-04-02T06:34:16.438Z,99.90
2018-04-02T06:36:44.847Z,99.90
2018-04-02T06:39:13.278Z,99.90
2018-04-02T06:41:41.468Z,99.90
2018-04-02T06:44:09.092Z,99.90
2018-04-02T06:46:37.186Z,99.90
2018-04-02T06:49:04.829Z,99.90
2018-04-02T06:51:35.024Z,99.90
2018-04-02T06:54:03.745Z,99.90
2018-04-02T06:56:31.747Z,99.90
2018-04-02T06:58:59.601Z,99.90
2018-04-02T07:01:27.357Z,99.90
2018-04-02T07:03:55.165Z,99.90
2018-04-02T07:06:23.586Z,99.90
2018-04-02T07:08:51.224Z,99.90
2018-04-02T07:11:19.486Z,99.90
2018-04-02T07:13:47.716Z,97.70
2018-04-02T07:16:15.563Z,97.70
2018-04-02T07:18:43.236Z,97.50
2018-04-02T07:21:10.850Z,96.20
2018-04-02T07:23:38.542Z,96.40
2018-04-02T07:26:06.148Z,96.90
2018-04-02T07:28:33.799Z,97.30
2018-04-02T07:31:01.429Z,95.10
2018-04-02T07:33:29.444Z,95.20
2018-04-02T07:35:57.266Z,95.80
2018-04-02T07:38:24.887Z,96.00
2018-04-02T07:40:52.557Z,94.60
2018-04-02T07:43:22.231Z,95.20
2018-04-02T07:45:49.880Z,93.80
2018-04-02T07:48:18.315Z,89.60
2018-04-02T07:50:45.928Z,89.70
2018-04-02T07:53:13.848Z,90.90
2018-04-02T07:55:41.669Z,82.60
2018-04-02T07:58:09.372Z,82.50
2018-04-02T08:00:37.437Z,83.50
2018-04-02T08:03:05.064Z,82.00
2018-04-02T08:05:32.687Z,82.00
2018-04-02T08:08:01.817Z,77.10
2018-04-02T08:10:29.809Z,76.30
2018-04-02T08:12:57.795Z,75.70
2018-04-02T08:15:25.824Z,75.00
2018-04-02T08:17:53.794Z,74.30
2018-04-02T08:20:22.419Z,67.60
2018-04-02T08:22:50.036Z,68.70
2018-04-02T08:25:17.746Z,63.80
2018-04-02T08:27:45.369Z,60.10
2018-04-02T08:30:13.465Z,61.20
2018-04-02T08:32:41.151Z,60.30
2018-04-02T08:35:08.768Z,60.50
2018-04-02T08:37:36.413Z,59.60
2018-04-02T08:40:04.641Z,58.30
2018-04-02T08:42:32.493Z,59.80
2018-04-02T08:45:00.106Z,56.10
2018-04-02T08:47:27.757Z,56.50
2018-04-02T08:49:56.179Z,58.10
2018-04-02T08:52:23.833Z,58.00
2018-04-02T08:54:51.450Z,58.30
2018-04-02T08:57:19.093Z,55.40
2018-04-02T08:59:47.301Z,49.70
2018-04-02T09:02:14.945Z,48.80
2018-04-02T09:04:42.560Z,51.10
2018-04-02T09:07:10.398Z,50.30
2018-04-02T09:09:38.050Z,48.50
2018-04-02T09:12:05.700Z,47.00
2018-04-02T09:14:33.348Z,48.10
2018-04-02T09:17:01.726Z,45.80
2018-04-02T09:19:30.109Z,44.40
2018-04-02T09:21:57.765Z,43.70
2018-04-02T09:24:25.390Z,44.70
2018-04-02T09:26:53.817Z,46.60
2018-04-02T09:29:21.432Z,46.30
2018-04-02T09:31:49.277Z,42.20
2018-04-02T09:34:16.961Z,43.30
2018-04-02T09:36:44.605Z,42.40
2018-04-02T09:39:12.219Z,44.00
2018-04-02T09:41:39.835Z,44.30
2018-04-02T09:44:07.694Z,44.00
2018-04-02T09:46:35.305Z,40.80
2018-04-02T09:49:03.385Z,44.00
2018-04-02T09:51:31.625Z,42.80
2018-04-02T09:53:59.864Z,44.00
2018-04-02T09:56:27.524Z,43.30
2018-04-02T09:58:55.180Z,44.60
2018-04-02T10:01:22.801Z,41.60
2018-04-02T10:03:55.277Z,40.10
2018-04-02T10:06:23.607Z,42.50
2018-04-02T10:08:51.262Z,41.50
2018-04-02T10:11:18.873Z,40.60
2018-04-02T10:13:46.567Z,40.60
2018-04-02T10:16:14.185Z,40.30
2018-04-02T10:18:41.889Z,40.90
2018-04-02T10:21:09.581Z,42.00
2018-04-02T10:23:37.193Z,37.50
2018-04-02T10:26:04.810Z,39.30
2018-04-02T10:28:34.269Z,40.10
2018-04-02T10:31:01.965Z,39.90
2018-04-02T10:33:29.576Z,39.50
2018-04-02T10:35:57.238Z,38.50
2018-04-02T10:38:24.844Z,37.30
2018-04-02T10:40:52.485Z,37.00
2018-04-02T10:43:20.188Z,39.00
2018-04-02T10:45:47.844Z,39.00
2018-04-02T10:48:16.221Z,37.80
2018-04-02T10:50:44.594Z,37.10
2018-04-02T10:53:13.009Z,36.90
2018-04-02T10:55:41.389Z,37.40
2018-04-02T10:58:09.692Z,35.90
2018-04-02T11:00:37.309Z,36.50
2018-04-02T11:03:04.960Z,35.10
2018-04-02T11:05:32.573Z,36.00
2018-04-02T11:08:00.223Z,35.60
2018-04-02T11:10:27.883Z,35.20
2018-04-02T11:12:55.497Z,35.00
2018-04-02T11:15:23.145Z,35.60
2018-04-02T11:17:51.553Z,34.60
2018-04-02T11:20:19.190Z,34.60
2018-04-02T11:22:47.018Z,33.80
2018-04-02T11:25:15.193Z,34.50
2018-04-02T11:27:42.883Z,31.00
2018-04-02T11:30:11.260Z,32.20
2018-04-02T11:32:39.672Z,34.50
2018-04-02T11:35:07.369Z,34.20
2018-04-02T11:37:35.017Z,35.40
2018-04-02T11:40:02.885Z,34.30
2018-04-02T11:42:30.542Z,34.20
2018-04-02T11:44:58.626Z,32.10
2018-04-02T11:47:26.238Z,34.10
2018-04-02T11:49:54.132Z,32.50
2018-04-02T11:52:21.758Z,31.30
2018-04-02T11:54:49.408Z,33.10
2018-04-02T11:57:17.105Z,32.40
2018-04-02T11:59:44.749Z,32.30
2018-04-02T12:02:12.384Z,30.00
2018-04-02T12:04:40.029Z,30.60
2018-04-02T12:07:07.688Z,30.00
2018-04-02T12:09:35.404Z,28.90
2018-04-02T12:12:03.188Z,29.60
2018-04-02T12:14:30.845Z,29.30
2018-04-02T12:16:58.452Z,30.00
2018-04-02T12:19:26.865Z,28.80
2018-04-02T12:21:54.590Z,28.40
2018-04-02T12:24:22.969Z,27.40
2018-04-02T12:26:51.388Z,27.90
2018-04-02T12:29:19.232Z,27.80
2018-04-02T12:31:46.885Z,27.90
2018-04-02T12:34:14.509Z,29.10
2018-04-02T12:36:42.173Z,28.10
2018-04-02T12:39:09.831Z,28.50
2018-04-02T12:41:37.483Z,29.40
2018-04-02T12:44:05.088Z,28.70
2018-04-02T12:46:32.930Z,27.90
2018-04-02T12:49:00.543Z,29.30
2018-04-02T12:51:28.205Z,28.20
2018-04-02T12:53:56.153Z,28.70
2018-04-02T12:56:23.776Z,29.20
2018-04-02T12:58:52.165Z,26.60
2018-04-02T13:01:20.890Z,26.10
2018-04-02T13:03:49.134Z,27.00
2018-04-02T13:06:16.750Z,28.10
2018-04-02T13:08:44.574Z,28.20
2018-04-02T13:11:12.266Z,30.10
2018-04-02T13:13:39.929Z,30.70
2018-04-02T13:16:07.585Z,29.40
2018-04-02T13:18:35.208Z,31.20
2018-04-02T13:21:02.856Z,31.70
2018-04-02T13:23:30.517Z,31.30
2018-04-02T13:25:58.166Z,30.00
2018-04-02T13:28:26.586Z,29.70
2018-04-02T13:30:54.224Z,29.80
2018-04-02T13:33:22.005Z,31.30
2018-04-02T13:35:49.777Z,31.50
2018-04-02T13:38:17.446Z,30.30
2018-04-02T13:40:45.217Z,30.70
2018-04-02T13:43:12.873Z,28.90
2018-04-02T13:45:41.868Z,30.50
2018-04-02T13:48:10.469Z,32.10
2018-04-02T13:50:38.196Z,30.90
2018-04-02T13:53:05.834Z,29.60
2018-04-02T13:55:33.634Z,31.70
2018-04-02T13:58:01.250Z,30.20
2018-04-02T14:00:31.361Z,32.10
2018-04-02T14:02:58.973Z,30.60
2018-04-02T14:05:27.997Z,31.50
2018-04-02T14:07:55.610Z,30.20
2018-04-02T14:10:23.287Z,30.90
2018-04-02T14:12:50.905Z,31.80
2018-04-02T14:15:18.589Z,31.40
2018-04-02T14:17:46.437Z,31.90
2018-04-02T14:20:14.401Z,30.20
2018-04-02T14:22:42.068Z,29.90
2018-04-02T14:25:09.684Z,29.10
2018-04-02T14:27:38.120Z,28.30
2018-04-02T14:30:06.246Z,28.30
2018-04-02T14:32:35.999Z,29.90
2018-04-02T14:35:06.121Z,29.00
2018-04-02T14:37:35.393Z,28.80
2018-04-02T14:40:03.054Z,28.20
2018-04-02T14:42:30.677Z,28.20
2018-04-02T14:44:58.331Z,32.00
2018-04-02T14:47:30.015Z,29.90
2018-04-02T14:49:57.728Z,28.90
2018-04-02T14:52:25.887Z,30.00
2018-04-02T14:54:55.514Z,30.60
2018-04-02T14:57:26.091Z,29.90
2018-04-02T14:59:54.789Z,30.20
2018-04-02T15:02:23.588Z,29.30
2018-04-02T15:04:51.473Z,29.20
2018-04-02T15:07:19.089Z,29.80
2018-04-02T15:09:47.616Z,29.90
2018-04-02T15:12:16.030Z,30.40
2018-04-02T15:14:45.016Z,30.60
2018-04-02T15:17:13.992Z,30.00
2018-04-02T15:19:42.516Z,30.80
2018-04-02T15:22:10.462Z,29.90
2018-04-02T15:24:39.016Z,30.50
2018-04-02T15:27:06.812Z,29.90
2018-04-02T15:29:35.306Z,32.00
2018-04-02T15:32:02.961Z,31.20
2018-04-02T15:34:30.639Z,30.50
2018-04-02T15:36:58.302Z,28.90
2018-04-02T15:39:25.975Z,30.30
2018-04-02T15:41:53.586Z,31.70
2018-04-02T15:44:21.294Z,31.10
2018-04-02T15:46:48.939Z,31.80
2018-04-02T15:49:16.612Z,31.90
2018-04-02T15:51:44.238Z,32.80
2018-04-02T15:54:12.155Z,32.10
2018-04-02T15:56:42.370Z,31.30
2018-04-02T15:59:10.034Z,31.00
2018-04-02T16:01:37.689Z,32.40
2018-04-02T16:04:06.024Z,32.20
2018-04-02T16:06:33.825Z,32.50
2018-04-02T16:09:01.527Z,32.10
2018-04-02T16:11:29.944Z,32.00
2018-04-02T16:13:57.610Z,32.60
2018-04-02T16:16:25.237Z,32.50
2018-04-02T16:18:54.438Z,32.20
2018-04-02T16:21:22.161Z,33.00
2018-04-02T16:23:49.781Z,32.40
2018-04-02T16:26:17.433Z,32.20
2018-04-02T16:28:46.001Z,32.70
2018-04-02T16:31:15.062Z,33.00
2018-04-02T16:33:43.316Z,31.50
2018-04-02T16:36:10.971Z,33.00
2018-04-02T16:38:39.985Z,32.80
2018-04-02T16:41:07.621Z,34.80
2018-04-02T16:43:35.237Z,33.40
2018-04-02T16:46:03.895Z,34.20
2018-04-02T16:48:31.583Z,33.40
2018-04-02T16:50:59.370Z,34.30
2018-04-02T16:53:27.017Z,35.00
2018-04-02T16:55:54.678Z,34.80
2018-04-02T16:58:22.291Z,34.90
2018-04-02T17:00:49.942Z,34.90
2018-04-02T17:03:17.620Z,35.40
2018-04-02T17:05:45.269Z,34.30
2018-04-02T17:08:12.921Z,36.60
2018-04-02T17:10:40.900Z,37.20
2018-04-02T17:13:08.847Z,37.50
2018-04-02T17:15:36.461Z,36.40
2018-04-02T17:18:06.197Z,37.40
2018-04-02T17:20:33.882Z,37.80
2018-04-02T17:23:01.578Z,38.70
2018-04-02T17:25:29.249Z,36.00
2018-04-02T17:27:56.913Z,36.70
2018-04-02T17:30:24.553Z,38.10
2018-04-02T17:32:52.981Z,38.50
2018-04-02T17:35:23.205Z,38.00
2018-04-02T17:37:50.892Z,39.60
2018-04-02T17:40:20.272Z,37.80
2018-04-02T17:42:48.509Z,38.70
2018-04-02T17:45:16.170Z,38.80
2018-04-02T17:47:44.552Z,41.20
2018-04-02T17:50:12.933Z,40.70
2018-04-02T17:52:40.584Z,41.30
2018-04-02T17:55:08.218Z,42.50
2018-04-02T17:57:35.873Z,44.30
2018-04-02T18:00:03.712Z,44.10
2018-04-02T18:02:31.790Z,44.80
2018-04-02T18:05:00.301Z,45.20
2018-04-02T18:07:28.147Z,44.80
2018-04-02T18:11:40.354Z,45.40
2018-04-02T18:14:07.977Z,46.30
2018-04-02T18:16:35.664Z,47.80
2018-04-02T18:19:03.329Z,48.20
2018-04-02T18:21:31.505Z,49.30
2018-04-02T18:23:59.489Z,48.60
2018-04-02T18:26:27.637Z,48.90
2018-04-02T18:28:55.264Z,51.40
2018-04-02T18:31:22.914Z,52.50
2018-04-02T18:33:50.594Z,52.90
2018-04-02T18:36:18.214Z,54.00
2018-04-02T18:38:45.893Z,53.00
2018-04-02T18:41:13.510Z,53.50
2018-04-02T18:43:41.869Z,53.20
2018-04-02T18:46:09.554Z,52.50
2018-04-02T18:48:37.173Z,55.00
2018-04-02T18:51:04.829Z,54.80
2018-04-02T18:53:32.458Z,55.00
2018-04-02T18:56:00.276Z,55.20
2018-04-02T18:58:27.908Z,56.20
2018-04-02T19:00:55.566Z,57.80
2018-04-02T19:03:23.888Z,57.00
2018-04-02T19:05:51.540Z,58.00
2018-04-02T19:08:19.505Z,60.10
2018-04-02T19:10:47.157Z,61.20
2018-04-02T19:13:14.965Z,63.50
2018-04-02T19:15:42.721Z,62.10
2018-04-02T19:18:10.369Z,65.00
2018-04-02T19:20:37.989Z,64.70
2018-04-02T19:23:05.673Z,66.70
2018-04-02T19:25:33.320Z,66.40
2018-04-02T19:28:01.172Z,67.10
2018-04-02T19:30:28.801Z,69.40
2018-04-02T19:32:56.424Z,72.50
2018-04-02T19:35:24.092Z,72.30
2018-04-02T19:37:51.759Z,73.70
2018-04-02T19:40:19.613Z,75.00
2018-04-02T19:42:47.283Z,75.50
2018-04-02T19:45:14.897Z,76.10
2018-04-02T19:47:42.602Z,78.40
2018-04-02T19:50:10.257Z,80.20
2018-04-02T19:52:37.957Z,79.10
2018-04-02T19:55:06.506Z,80.70
2018-04-02T19:57:34.891Z,81.30
2018-04-02T20:00:02.514Z,80.70
2018-04-02T20:02:30.181Z,82.20
2018-04-02T20:04:57.862Z,81.20
2018-04-02T20:07:25.497Z,80.30
2018-04-02T20:09:54.044Z,78.40
2018-04-02T20:12:21.681Z,78.80
2018-04-02T20:14:49.329Z,79.30
2018-04-02T20:17:16.941Z,78.50
2018-04-02T20:19:44.601Z,77.60
2018-04-02T20:22:12.269Z,77.00
2018-04-02T20:24:39.928Z,75.50
2018-04-02T20:27:07.562Z,74.00
2018-04-02T20:29:35.226Z,75.90
2018-04-02T20:32:03.638Z,75.10
2018-04-02T20:34:31.410Z,75.20
2018-04-02T20:36:59.076Z,73.20
2018-04-02T20:39:26.749Z,74.00
2018-04-02T20:41:54.389Z,73.50
2018-04-02T20:44:21.997Z,72.30
2018-04-02T20:46:49.654Z,71.90
2018-04-02T20:49:17.369Z,72.30
2018-04-02T20:51:45.021Z,73.50
2018-04-02T20:54:12.862Z,71.70
2018-04-02T20:56:40.532Z,71.30
2018-04-02T20:59:08.158Z,71.60
2018-04-02T21:01:35.825Z,70.00
2018-04-02T21:04:04.211Z,69.40
2018-04-02T21:06:32.621Z,70.40
2018-04-02T21:09:00.252Z,70.50
2018-04-02T21:11:27.958Z,69.20
2018-04-02T21:13:56.245Z,70.40
2018-04-02T21:16:24.086Z,69.30
2018-04-02T21:18:51.763Z,69.90
2018-04-02T21:21:19.517Z,70.20
2018-04-02T21:23:47.129Z,69.80
2018-04-02T21:26:14.741Z,70.10
2018-04-02T21:28:42.429Z,70.40
2018-04-02T21:31:10.085Z,73.30
2018-04-02T21:33:37.937Z,74.10
2018-04-02T21:36:05.591Z,74.80
2018-04-02T21:38:33.253Z,75.70
2018-04-02T21:41:00.922Z,75.70
2018-04-02T21:43:28.581Z,79.60
2018-04-02T21:45:56.242Z,77.80
2018-04-02T21:48:23.905Z,81.80
2018-04-02T21:50:51.555Z,85.70
2018-04-02T21:53:19.390Z,86.20
2018-04-02T21:55:47.041Z,87.00
2018-04-02T21:58:14.705Z,87.80
2018-04-02T22:00:42.313Z,88.40
2018-04-02T22:03:11.469Z,88.20
2018-04-02T22:05:39.165Z,88.10
2018-04-02T22:08:10.054Z,86.50
2018-04-02T22:10:37.743Z,87.00
2018-04-02T22:13:05.384Z,86.10
2018-04-02T22:15:33.746Z,86.20
2018-04-02T22:18:01.401Z,85.80
2018-04-02T22:20:29.067Z,86.60
2018-04-02T22:22:56.685Z,83.90
2018-04-02T22:25:25.844Z,81.70
2018-04-02T22:27:53.464Z,82.00
2018-04-02T22:30:21.117Z,82.20
2018-04-02T22:32:48.731Z,83.20
2018-04-02T22:35:16.393Z,83.10
2018-04-02T22:37:44.396Z,83.30
2018-04-02T22:40:12.076Z,83.60
2018-04-02T22:42:41.598Z,85.50
2018-04-02T22:45:09.261Z,86.60
2018-04-02T22:47:36.904Z,87.80
2018-04-02T22:50:05.285Z,90.70
2018-04-02T22:52:33.532Z,90.60
2018-04-02T22:55:01.753Z,91.60
2018-04-02T22:57:29.453Z,92.00
2018-04-02T22:59:57.752Z,91.80
2018-04-02T23:02:25.414Z,92.50
2018-04-02T23:04:53.077Z,93.60
2018-04-02T23:07:21.502Z,92.70
2018-04-02T23:09:49.149Z,93.00
2018-04-02T23:12:17.004Z,92.10
2018-04-02T23:14:45.231Z,91.90
2018-04-02T23:17:12.843Z,91.70
2018-04-02T23:19:40.501Z,91.40
2018-04-02T23:22:08.152Z,91.40
2018-04-02T23:24:35.848Z,92.50
2018-04-02T23:27:03.519Z,92.20
2018-04-02T23:29:31.293Z,91.60
2018-04-02T23:31:58.933Z,92.00
2018-04-02T23:34:26.582Z,91.90
2018-04-02T23:36:54.253Z,92.30
2018-04-02T23:39:21.952Z,92.50
2018-04-02T23:41:49.565Z,93.20
2018-04-02T23:44:17.180Z,93.90
2018-04-02T23:46:44.832Z,94.60
2018-04-02T23:49:12.501Z,96.90
2018-04-02T23:51:40.912Z,99.90
2018-04-02T23:54:09.313Z,99.90
2018-04-02T23:56:36.944Z,99.90
2018-04-02T23:59:04.560Z,99.90
